Time,TemperatureF,DewpointF,PressureIn,WindDirection,WindDirectionDegrees,WindSpeedMPH,WindSpeedGustMPH,Humidity,HourlyPrecipIn,Conditions,Clouds,dailyrainin,SoftwareType,DateUTC
2013-11-30 00:22:00,33.0,26.0,30.59,WSW,249,0.0,3.0,75,0.00,,,0.00,,2013-11-30 05:22:00,
2013-11-30 00:43:00,33.0,26.0,30.59,WSW,249,0.0,3.0,76,0.00,,,0.00,,2013-11-30 05:43:00,
2013-11-30 00:53:00,33.0,26.0,30.59,WSW,249,0.0,3.0,76,0.00,,,0.00,,2013-11-30 05:53:00,
2013-11-30 01:12:00,32.0,26.0,30.59,SW,233,0.0,2.0,77,0.00,,,0.00,,2013-11-30 06:12:00,
2013-11-30 01:22:00,32.0,25.0,30.59,SW,236,0.0,2.0,76,0.00,,,0.00,,2013-11-30 06:22:00,
2013-11-30 01:42:00,32.0,26.0,30.58,SW,236,0.0,2.0,77,0.00,,,0.00,,2013-11-30 06:42:00,
2013-11-30 01:52:00,31.0,25.0,30.58,WSW,241,1.0,3.0,77,0.00,,,0.00,,2013-11-30 06:52:00,
2013-11-30 02:22:00,32.0,25.0,30.59,WSW,241,0.0,1.0,76,0.00,,,0.00,,2013-11-30 07:22:00,
2013-11-30 02:42:00,31.0,25.0,30.59,WSW,241,1.0,3.0,78,0.00,,,0.00,,2013-11-30 07:42:00,
2013-11-30 02:52:00,31.0,25.0,30.59,WSW,241,0.0,1.0,79,0.00,,,0.00,,2013-11-30 07:52:00,
2013-11-30 03:22:00,30.0,24.0,30.59,WSW,241,0.0,1.0,79,0.00,,,0.00,,2013-11-30 08:22:00,
2013-11-30 03:42:00,30.0,25.0,30.59,WSW,241,0.0,1.0,80,0.00,,,0.00,,2013-11-30 08:42:00,
2013-11-30 03:52:00,30.0,25.0,30.58,WSW,241,0.0,1.0,80,0.00,,,0.00,,2013-11-30 08:52:00,
2013-11-30 04:11:00,29.0,24.0,30.58,WSW,241,0.0,2.0,81,0.00,,,0.00,,2013-11-30 09:11:00,
2013-11-30 04:22:00,29.0,24.0,30.58,WSW,241,0.0,1.0,82,0.00,,,0.00,,2013-11-30 09:22:00,
2013-11-30 04:43:00,29.0,24.0,30.58,WSW,241,0.0,2.0,81,0.00,,,0.00,,2013-11-30 09:43:00,
2013-11-30 04:53:00,29.0,25.0,30.58,WSW,241,0.0,1.0,83,0.00,,,0.00,,2013-11-30 09:53:00,
2013-11-30 05:13:00,29.0,24.0,30.58,WSW,241,0.0,2.0,82,0.00,,,0.00,,2013-11-30 10:13:00,
2013-11-30 05:23:00,29.0,24.0,30.58,WSW,241,0.0,2.0,82,0.00,,,0.00,,2013-11-30 10:23:00,
2013-11-30 05:42:00,28.0,24.0,30.58,WSW,241,0.0,1.0,84,0.00,,,0.00,,2013-11-30 10:42:00,
2013-11-30 05:53:00,28.0,24.0,30.57,WSW,241,0.0,1.0,83,0.00,,,0.00,,2013-11-30 10:53:00,
2013-11-30 06:22:00,28.0,24.0,30.58,WSW,241,0.0,1.0,84,0.00,,,0.00,,2013-11-30 11:22:00,
2013-11-30 06:42:00,28.0,24.0,30.58,WSW,241,0.0,1.0,84,0.00,,,0.00,,2013-11-30 11:42:00,
2013-11-30 06:52:00,28.0,24.0,30.59,WSW,241,0.0,1.0,83,0.00,,,0.00,,2013-11-30 11:52:00,
2013-11-30 07:11:00,28.0,24.0,30.59,WSW,241,0.0,1.0,83,0.00,,,0.00,,2013-11-30 12:11:00,
2013-11-30 07:22:00,28.0,24.0,30.59,WSW,241,0.0,1.0,83,0.00,,,0.00,,2013-11-30 12:22:00,
2013-11-30 07:42:00,28.0,24.0,30.59,WSW,241,0.0,1.0,83,0.00,,,0.00,,2013-11-30 12:42:00,
2013-11-30 07:52:00,27.0,23.0,30.59,WSW,241,0.0,1.0,84,0.00,,,0.00,,2013-11-30 12:52:00,
2013-11-30 08:11:00,27.0,23.0,30.59,WSW,241,0.0,1.0,84,0.00,,,0.00,,2013-11-30 13:11:00,
2013-11-30 08:22:00,27.0,22.0,30.59,WSW,241,0.0,0.0,82,0.00,,,0.00,,2013-11-30 13:22:00,
2013-11-30 08:42:00,28.0,24.0,30.59,WSW,241,0.0,0.0,83,0.00,,,0.00,,2013-11-30 13:42:00,
2013-11-30 08:52:00,28.0,23.0,30.59,WSW,241,0.0,0.0,81,0.00,,,0.00,,2013-11-30 13:52:00,
2013-11-30 09:12:00,28.0,22.0,30.59,WSW,241,0.0,0.0,79,0.00,,,0.00,,2013-11-30 14:12:00,
2013-11-30 09:22:00,29.0,23.0,30.60,WSW,241,0.0,0.0,79,0.00,,,0.00,,2013-11-30 14:22:00,
2013-11-30 09:42:00,29.0,22.0,30.60,WSW,241,0.0,0.0,76,0.00,,,0.00,,2013-11-30 14:42:00,
2013-11-30 09:52:00,30.0,23.0,30.60,WSW,241,0.0,0.0,75,0.00,,,0.00,,2013-11-30 14:52:00,
2013-11-30 10:22:00,33.0,25.0,30.59,WSW,240,0.0,0.0,72,0.00,,,0.00,,2013-11-30 15:22:00,
2013-11-30 10:43:00,33.0,24.0,30.59,ENE,74,0.0,3.0,69,0.00,,,0.00,,2013-11-30 15:43:00,
2013-11-30 10:53:00,34.0,25.0,30.59,ENE,74,0.0,2.0,69,0.00,,,0.00,,2013-11-30 15:53:00,
2013-11-30 11:13:00,35.0,25.0,30.59,ENE,74,0.0,1.0,67,0.00,,,0.00,,2013-11-30 16:13:00,
2013-11-30 11:23:00,35.0,25.0,30.59,ENE,74,1.0,3.0,67,0.00,,,0.00,,2013-11-30 16:23:00,
2013-11-30 11:43:00,35.0,25.0,30.58,ENE,74,0.0,3.0,67,0.00,,,0.00,,2013-11-30 16:43:00,
2013-11-30 11:53:00,36.0,26.0,30.58,ENE,74,0.0,3.0,66,0.00,,,0.00,,2013-11-30 16:53:00,
2013-11-30 12:11:00,37.0,27.0,30.57,ENE,74,0.0,4.0,66,0.00,,,0.00,,2013-11-30 17:11:00,
2013-11-30 12:22:00,37.0,26.0,30.55,ENE,74,0.0,3.0,65,0.00,,,0.00,,2013-11-30 17:22:00,
2013-11-30 12:42:00,38.0,27.0,30.54,ENE,68,0.0,3.0,63,0.00,,,0.00,,2013-11-30 17:42:00,
2013-11-30 12:53:00,39.0,27.0,30.53,ENE,68,1.0,3.0,62,0.00,,,0.00,,2013-11-30 17:53:00,
2013-11-30 13:12:00,39.0,27.0,30.52,ENE,68,1.0,4.0,61,0.00,,,0.00,,2013-11-30 18:12:00,
2013-11-30 13:22:00,39.0,26.0,30.51,East,87,1.0,4.0,59,0.00,,,0.00,,2013-11-30 18:22:00,
2013-11-30 13:42:00,40.0,28.0,30.50,East,87,1.0,4.0,61,0.00,,,0.00,,2013-11-30 18:42:00,
2013-11-30 13:52:00,40.0,27.0,30.50,ENE,77,0.0,3.0,59,0.00,,,0.00,,2013-11-30 18:52:00,
2013-11-30 14:11:00,41.0,28.0,30.49,ENE,77,1.0,4.0,59,0.00,,,0.00,,2013-11-30 19:11:00,
2013-11-30 14:21:00,41.0,28.0,30.48,ENE,77,0.0,4.0,59,0.00,,,0.00,,2013-11-30 19:21:00,
2013-11-30 14:52:00,42.0,28.0,30.47,ENE,77,0.0,3.0,58,0.00,,,0.00,,2013-11-30 19:52:00,
2013-11-30 15:22:00,43.0,28.0,30.45,ENE,77,0.0,2.0,56,0.00,,,0.00,,2013-11-30 20:22:00,
2013-11-30 15:52:00,42.0,27.0,30.45,ENE,77,0.0,2.0,55,0.00,,,0.00,,2013-11-30 20:52:00,
2013-11-30 17:42:00,36.0,29.0,30.41,SW,236,1.0,3.0,76,0.00,,,0.00,,2013-11-30 22:42:00,
2013-11-30 17:52:00,36.0,29.0,30.41,WSW,241,1.0,3.0,77,0.00,,,0.00,,2013-11-30 22:52:00,
2013-11-30 18:12:00,35.0,28.0,30.42,WSW,238,0.0,3.0,76,0.00,,,0.00,,2013-11-30 23:12:00,
2013-11-30 18:22:00,35.0,29.0,30.42,WSW,238,1.0,3.0,77,0.00,,,0.00,,2013-11-30 23:22:00,
2013-11-30 18:42:00,35.0,29.0,30.42,SW,226,0.0,3.0,78,0.00,,,0.00,,2013-11-30 23:42:00,
2013-11-30 18:53:00,35.0,29.0,30.42,WSW,237,0.0,3.0,78,0.00,,,0.00,,2013-11-30 23:53:00,
2013-11-30 19:11:00,34.0,28.0,30.42,SW,234,1.0,2.0,79,0.00,,,0.00,,2013-12-01 00:11:00,
2013-11-30 19:22:00,34.0,28.0,30.42,SW,233,1.0,2.0,80,0.00,,,0.00,,2013-12-01 00:22:00,
2013-11-30 19:42:00,33.0,28.0,30.42,SW,233,0.0,2.0,80,0.00,,,0.00,,2013-12-01 00:42:00,
2013-11-30 19:52:00,33.0,28.0,30.42,SW,233,1.0,2.0,80,0.00,,,0.00,,2013-12-01 00:52:00,
2013-11-30 20:21:00,33.0,28.0,30.41,SW,233,0.0,2.0,81,0.00,,,0.00,,2013-12-01 01:21:00,
2013-11-30 20:42:00,33.0,28.0,30.42,SW,233,1.0,2.0,81,0.00,,,0.00,,2013-12-01 01:42:00,
2013-11-30 20:52:00,32.0,27.0,30.42,SW,233,0.0,2.0,80,0.00,,,0.00,,2013-12-01 01:52:00,
2013-11-30 21:22:00,32.0,27.0,30.41,SW,233,1.0,2.0,82,0.00,,,0.00,,2013-12-01 02:22:00,
2013-11-30 21:42:00,32.0,27.0,30.41,SW,233,0.0,2.0,81,0.00,,,0.00,,2013-12-01 02:42:00,
2013-11-30 21:52:00,32.0,27.0,30.41,SW,233,0.0,2.0,81,0.00,,,0.00,,2013-12-01 02:52:00,
2013-11-30 22:22:00,31.0,26.0,30.40,SW,233,0.0,2.0,81,0.00,,,0.00,,2013-12-01 03:22:00,
2013-11-30 22:44:00,31.0,26.0,30.40,SW,233,0.0,3.0,80,0.00,,,0.00,,2013-12-01 03:44:00,
2013-11-30 22:53:00,32.0,26.0,30.40,SW,233,0.0,2.0,79,0.00,,,0.00,,2013-12-01 03:53:00,
2013-11-30 23:03:00,-999.0,-99.9,30.39,SW,233,0.0,2.0,-999,0.00,,,0.00,,2013-12-01 04:03:00,
2013-11-30 23:13:00,31.0,26.0,30.39,SW,233,0.0,2.0,81,0.00,,,0.00,,2013-12-01 04:13:00,
2013-11-30 23:23:00,31.0,25.0,30.39,SW,233,0.0,2.0,79,0.00,,,0.00,,2013-12-01 04:23:00,
2013-11-30 23:42:00,31.0,26.0,30.39,SW,233,0.0,2.0,80,0.00,,,0.00,,2013-12-01 04:42:00,
2013-11-30 23:52:00,31.0,25.0,30.39,SW,233,1.0,2.0,79,0.00,,,0.00,,2013-12-01 04:52:00,